sensor_id;sensor_type;location;lat;lon;timestamp;P1;durP1;ratioP1;P2;durP2;ratioP2
151;SDS011;68;48.792;9.164;2024-02-16T00:00:58;19.92;;;18.23;;
151;SDS011;68;48.792;9.164;2024-02-16T00:03:25;21.20;;;17.50;;
151;SDS011;68;48.792;9.164;2024-02-16T00:05:51;20.33;;;18.38;;
151;SDS011;68;48.792;9.164;2024-02-16T00:08:18;19.10;;;17.40;;
151;SDS011;68;48.792;9.164;2024-02-16T00:10:46;17.95;;;16.85;;
151;SDS011;68;48.792;9.164;2024-02-16T00:13:13;19.60;;;18.45;;
151;SDS011;68;48.792;9.164;2024-02-16T00:15:41;19.65;;;17.63;;
151;SDS011;68;48.792;9.164;2024-02-16T00:18:08;17.80;;;16.90;;
151;SDS011;68;48.792;9.164;2024-02-16T00:20:35;17.80;;;16.90;;
151;SDS011;68;48.792;9.164;2024-02-16T00:23:02;21.73;;;17.90;;
151;SDS011;68;48.792;9.164;2024-02-16T00:25:29;22.38;;;19.63;;
151;SDS011;68;48.792;9.164;2024-02-16T00:27:55;22.55;;;19.02;;
151;SDS011;68;48.792;9.164;2024-02-16T00:30:22;21.58;;;17.60;;
151;SDS011;68;48.792;9.164;2024-02-16T00:32:50;23.35;;;17.25;;
151;SDS011;68;48.792;9.164;2024-02-16T00:35:17;18.05;;;17.15;;
151;SDS011;68;48.792;9.164;2024-02-16T00:37:44;18.65;;;16.67;;
151;SDS011;68;48.792;9.164;2024-02-16T00:40:12;17.30;;;16.40;;
151;SDS011;68;48.792;9.164;2024-02-16T00:42:39;17.60;;;16.10;;
151;SDS011;68;48.792;9.164;2024-02-16T00:45:06;17.35;;;16.45;;
151;SDS011;68;48.792;9.164;2024-02-16T00:47:33;16.20;;;15.40;;
151;SDS011;68;48.792;9.164;2024-02-16T00:50:01;16.80;;;15.93;;
151;SDS011;68;48.792;9.164;2024-02-16T00:52:30;17.08;;;16.17;;
151;SDS011;68;48.792;9.164;2024-02-16T00:54:57;16.42;;;15.63;;
151;SDS011;68;48.792;9.164;2024-02-16T00:57:24;16.85;;;15.98;;
151;SDS011;68;48.792;9.164;2024-02-16T00:59:50;16.63;;;15.82;;
151;SDS011;68;48.792;9.164;2024-02-16T01:02:17;16.60;;;15.80;;
151;SDS011;68;48.792;9.164;2024-02-16T01:04:44;17.70;;;16.83;;
151;SDS011;68;48.792;9.164;2024-02-16T01:07:13;17.10;;;15.75;;
151;SDS011;68;48.792;9.164;2024-02-16T01:09:40;17.38;;;15.88;;
151;SDS011;68;48.792;9.164;2024-02-16T01:12:06;16.08;;;15.27;;
151;SDS011;68;48.792;9.164;2024-02-16T01:14:33;17.23;;;16.33;;
151;SDS011;68;48.792;9.164;2024-02-16T01:17:00;17.23;;;16.33;;
151;SDS011;68;48.792;9.164;2024-02-16T01:19:26;17.27;;;16.00;;
151;SDS011;68;48.792;9.164;2024-02-16T01:21:53;18.13;;;16.13;;
151;SDS011;68;48.792;9.164;2024-02-16T01:24:24;16.40;;;15.60;;
151;SDS011;68;48.792;9.164;2024-02-16T01:26:50;17.08;;;16.17;;
151;SDS011;68;48.792;9.164;2024-02-16T01:29:17;16.92;;;16.05;;
151;SDS011;68;48.792;9.164;2024-02-16T01:31:44;19.40;;;16.77;;
151;SDS011;68;48.792;9.164;2024-02-16T01:34:11;17.30;;;16.40;;
151;SDS011;68;48.792;9.164;2024-02-16T01:36:38;17.27;;;16.38;;
151;SDS011;68;48.792;9.164;2024-02-16T01:39:05;17.40;;;16.50;;
151;SDS011;68;48.792;9.164;2024-02-16T01:41:33;16.88;;;16.00;;
151;SDS011;68;48.792;9.164;2024-02-16T01:44:00;17.15;;;16.25;;
151;SDS011;68;48.792;9.164;2024-02-16T01:46:26;17.65;;;16.75;;
151;SDS011;68;48.792;9.164;2024-02-16T01:48:53;17.45;;;16.40;;
151;SDS011;68;48.792;9.164;2024-02-16T01:51:21;18.63;;;17.73;;
151;SDS011;68;48.792;9.164;2024-02-16T01:53:51;17.90;;;17.00;;
151;SDS011;68;48.792;9.164;2024-02-16T01:56:19;18.40;;;17.50;;
151;SDS011;68;48.792;9.164;2024-02-16T01:58:48;18.02;;;17.13;;
151;SDS011;68;48.792;9.164;2024-02-16T02:01:15;19.23;;;18.23;;
151;SDS011;68;48.792;9.164;2024-02-16T02:03:42;18.02;;;17.15;;
151;SDS011;68;48.792;9.164;2024-02-16T02:06:08;17.80;;;16.90;;
151;SDS011;68;48.792;9.164;2024-02-16T02:08:35;19.80;;;17.92;;
151;SDS011;68;48.792;9.164;2024-02-16T02:11:02;17.65;;;16.30;;
151;SDS011;68;48.792;9.164;2024-02-16T02:13:30;20.48;;;15.93;;
151;SDS011;68;48.792;9.164;2024-02-16T02:15:59;20.25;;;17.05;;
151;SDS011;68;48.792;9.164;2024-02-16T02:18:26;17.70;;;16.80;;
151;SDS011;68;48.792;9.164;2024-02-16T02:20:53;17.33;;;16.42;;
151;SDS011;68;48.792;9.164;2024-02-16T02:23:21;17.60;;;16.70;;
151;SDS011;68;48.792;9.164;2024-02-16T02:25:48;16.98;;;16.08;;
151;SDS011;68;48.792;9.164;2024-02-16T02:28:15;17.73;;;16.80;;
151;SDS011;68;48.792;9.164;2024-02-16T02:30:42;17.45;;;16.55;;
151;SDS011;68;48.792;9.164;2024-02-16T02:33:10;17.75;;;16.58;;
151;SDS011;68;48.792;9.164;2024-02-16T02:35:38;17.30;;;16.40;;
151;SDS011;68;48.792;9.164;2024-02-16T02:38:05;17.40;;;16.50;;
151;SDS011;68;48.792;9.164;2024-02-16T02:40:33;18.05;;;16.42;;
151;SDS011;68;48.792;9.164;2024-02-16T02:43:00;18.42;;;17.08;;
151;SDS011;68;48.792;9.164;2024-02-16T02:45:27;19.02;;;16.75;;
151;SDS011;68;48.792;9.164;2024-02-16T02:47:53;17.38;;;16.38;;
151;SDS011;68;48.792;9.164;2024-02-16T02:50:20;16.90;;;16.00;;
151;SDS011;68;48.792;9.164;2024-02-16T02:52:47;17.50;;;16.60;;
151;SDS011;68;48.792;9.164;2024-02-16T02:55:14;17.08;;;16.17;;
151;SDS011;68;48.792;9.164;2024-02-16T02:57:42;17.45;;;16.55;;
151;SDS011;68;48.792;9.164;2024-02-16T03:00:09;17.42;;;16.50;;
151;SDS011;68;48.792;9.164;2024-02-16T03:02:37;17.70;;;16.80;;
151;SDS011;68;48.792;9.164;2024-02-16T03:05:04;17.65;;;16.30;;
151;SDS011;68;48.792;9.164;2024-02-16T03:07:32;17.80;;;15.88;;
151;SDS011;68;48.792;9.164;2024-02-16T03:09:59;17.50;;;16.60;;
151;SDS011;68;48.792;9.164;2024-02-16T03:12:26;17.58;;;16.45;;
151;SDS011;68;48.792;9.164;2024-02-16T03:14:54;17.17;;;16.30;;
151;SDS011;68;48.792;9.164;2024-02-16T03:17:21;18.60;;;16.88;;
151;SDS011;68;48.792;9.164;2024-02-16T03:19:48;18.70;;;16.92;;
151;SDS011;68;48.792;9.164;2024-02-16T03:22:14;17.50;;;16.60;;
151;SDS011;68;48.792;9.164;2024-02-16T03:24:41;17.88;;;16.70;;
151;SDS011;68;48.792;9.164;2024-02-16T03:27:09;18.63;;;17.38;;
151;SDS011;68;48.792;9.164;2024-02-16T03:29:36;19.30;;;16.85;;
151;SDS011;68;48.792;9.164;2024-02-16T03:32:04;17.13;;;16.23;;
151;SDS011;68;48.792;9.164;2024-02-16T03:34:31;17.92;;;17.02;;
151;SDS011;68;48.792;9.164;2024-02-16T03:36:58;17.77;;;16.92;;
151;SDS011;68;48.792;9.164;2024-02-16T03:39:25;18.00;;;17.10;;
151;SDS011;68;48.792;9.164;2024-02-16T03:41:52;17.83;;;16.77;;
151;SDS011;68;48.792;9.164;2024-02-16T03:44:19;17.20;;;16.30;;
151;SDS011;68;48.792;9.164;2024-02-16T03:46:46;17.45;;;16.55;;
151;SDS011;68;48.792;9.164;2024-02-16T03:49:15;18.98;;;16.95;;
151;SDS011;68;48.792;9.164;2024-02-16T03:51:41;18.83;;;17.60;;
151;SDS011;68;48.792;9.164;2024-02-16T03:54:08;17.25;;;16.35;;
151;SDS011;68;48.792;9.164;2024-02-16T03:56:35;17.40;;;16.50;;
151;SDS011;68;48.792;9.164;2024-02-16T03:59:02;18.17;;;17.27;;
151;SDS011;68;48.792;9.164;2024-02-16T04:01:30;17.00;;;16.10;;
151;SDS011;68;48.792;9.164;2024-02-16T04:03:57;17.60;;;16.70;;
151;SDS011;68;48.792;9.164;2024-02-16T04:06:25;21.90;;;17.75;;
151;SDS011;68;48.792;9.164;2024-02-16T04:08:51;18.88;;;16.35;;
151;SDS011;68;48.792;9.164;2024-02-16T04:11:18;17.60;;;15.95;;
151;SDS011;68;48.792;9.164;2024-02-16T04:13:45;23.30;;;16.55;;
151;SDS011;68;48.792;9.164;2024-02-16T04:16:12;17.65;;;16.75;;
151;SDS011;68;48.792;9.164;2024-02-16T04:18:38;19.58;;;15.90;;
151;SDS011;68;48.792;9.164;2024-02-16T04:21:05;17.13;;;16.05;;
151;SDS011;68;48.792;9.164;2024-02-16T04:23:33;17.27;;;16.38;;
151;SDS011;68;48.792;9.164;2024-02-16T04:26:00;16.60;;;15.80;;
151;SDS011;68;48.792;9.164;2024-02-16T04:28:27;18.40;;;17.50;;
151;SDS011;68;48.792;9.164;2024-02-16T04:30:53;23.75;;;16.75;;
151;SDS011;68;48.792;9.164;2024-02-16T04:33:20;17.35;;;16.48;;
151;SDS011;68;48.792;9.164;2024-02-16T04:35:47;17.58;;;16.67;;
151;SDS011;68;48.792;9.164;2024-02-16T04:38:15;17.20;;;16.30;;
151;SDS011;68;48.792;9.164;2024-02-16T04:40:43;18.08;;;17.17;;
151;SDS011;68;48.792;9.164;2024-02-16T04:43:10;17.90;;;17.00;;
151;SDS011;68;48.792;9.164;2024-02-16T04:45:37;17.23;;;16.20;;
151;SDS011;68;48.792;9.164;2024-02-16T04:48:04;17.27;;;16.38;;
151;SDS011;68;48.792;9.164;2024-02-16T04:50:31;17.05;;;16.15;;
151;SDS011;68;48.792;9.164;2024-02-16T04:52:58;20.10;;;16.35;;
151;SDS011;68;48.792;9.164;2024-02-16T04:55:26;17.33;;;16.42;;
151;SDS011;68;48.792;9.164;2024-02-16T04:57:54;17.73;;;16.48;;
151;SDS011;68;48.792;9.164;2024-02-16T05:00:21;17.40;;;16.50;;
151;SDS011;68;48.792;9.164;2024-02-16T05:02:48;18.77;;;16.05;;
151;SDS011;68;48.792;9.164;2024-02-16T05:05:16;18.55;;;15.60;;
151;SDS011;68;48.792;9.164;2024-02-16T05:07:43;16.30;;;15.50;;
151;SDS011;68;48.792;9.164;2024-02-16T05:10:14;16.40;;;15.52;;
151;SDS011;68;48.792;9.164;2024-02-16T05:12:41;17.90;;;16.10;;
151;SDS011;68;48.792;9.164;2024-02-16T05:15:09;16.95;;;16.00;;
151;SDS011;68;48.792;9.164;2024-02-16T05:17:38;16.30;;;15.50;;
151;SDS011;68;48.792;9.164;2024-02-16T05:20:07;17.08;;;16.17;;
151;SDS011;68;48.792;9.164;2024-02-16T05:22:40;16.63;;;15.82;;
151;SDS011;68;48.792;9.164;2024-02-16T05:25:08;20.75;;;15.13;;
151;SDS011;68;48.792;9.164;2024-02-16T05:27:35;16.65;;;15.85;;
151;SDS011;68;48.792;9.164;2024-02-16T05:30:02;17.10;;;16.20;;
151;SDS011;68;48.792;9.164;2024-02-16T05:32:33;17.45;;;16.55;;
151;SDS011;68;48.792;9.164;2024-02-16T05:35:01;17.65;;;16.35;;
151;SDS011;68;48.792;9.164;2024-02-16T05:37:29;16.58;;;15.77;;
151;SDS011;68;48.792;9.164;2024-02-16T05:39:57;16.33;;;15.52;;
151;SDS011;68;48.792;9.164;2024-02-16T05:42:33;17.88;;;16.42;;
151;SDS011;68;48.792;9.164;2024-02-16T05:45:00;16.88;;;16.00;;
151;SDS011;68;48.792;9.164;2024-02-16T05:47:27;16.60;;;15.80;;
151;SDS011;68;48.792;9.164;2024-02-16T05:49:55;17.52;;;16.63;;
151;SDS011;68;48.792;9.164;2024-02-16T05:52:23;17.73;;;16.13;;
151;SDS011;68;48.792;9.164;2024-02-16T05:54:50;17.90;;;16.83;;
151;SDS011;68;48.792;9.164;2024-02-16T05:57:18;24.02;;;17.13;;
151;SDS011;68;48.792;9.164;2024-02-16T05:59:44;17.83;;;16.92;;
151;SDS011;68;48.792;9.164;2024-02-16T06:02:11;17.38;;;16.48;;
151;SDS011;68;48.792;9.164;2024-02-16T06:04:38;17.20;;;16.30;;
151;SDS011;68;48.792;9.164;2024-02-16T06:07:06;21.63;;;16.90;;
151;SDS011;68;48.792;9.164;2024-02-16T06:09:34;17.10;;;16.20;;
151;SDS011;68;48.792;9.164;2024-02-16T06:12:02;17.48;;;16.58;;
151;SDS011;68;48.792;9.164;2024-02-16T06:14:30;19.45;;;16.20;;
151;SDS011;68;48.792;9.164;2024-02-16T06:16:57;17.77;;;16.88;;
151;SDS011;68;48.792;9.164;2024-02-16T06:19:24;16.58;;;15.77;;
151;SDS011;68;48.792;9.164;2024-02-16T06:21:51;16.65;;;15.85;;
151;SDS011;68;48.792;9.164;2024-02-16T06:24:20;17.80;;;16.60;;
151;SDS011;68;48.792;9.164;2024-02-16T06:26:48;17.83;;;16.50;;
151;SDS011;68;48.792;9.164;2024-02-16T06:29:15;16.52;;;15.73;;
151;SDS011;68;48.792;9.164;2024-02-16T06:31:41;17.65;;;16.75;;
151;SDS011;68;48.792;9.164;2024-02-16T06:34:08;17.50;;;16.35;;
151;SDS011;68;48.792;9.164;2024-02-16T06:36:35;17.48;;;16.58;;
151;SDS011;68;48.792;9.164;2024-02-16T06:39:01;18.65;;;17.20;;
151;SDS011;68;48.792;9.164;2024-02-16T06:41:30;17.30;;;16.40;;
151;SDS011;68;48.792;9.164;2024-02-16T06:43:57;17.77;;;16.88;;
151;SDS011;68;48.792;9.164;2024-02-16T06:46:24;19.85;;;17.75;;
151;SDS011;68;48.792;9.164;2024-02-16T06:48:52;16.63;;;15.82;;
151;SDS011;68;48.792;9.164;2024-02-16T06:51:21;17.02;;;16.13;;
151;SDS011;68;48.792;9.164;2024-02-16T06:53:48;19.45;;;16.13;;
151;SDS011;68;48.792;9.164;2024-02-16T06:56:15;16.88;;;16.00;;
151;SDS011;68;48.792;9.164;2024-02-16T06:58:44;17.02;;;16.13;;
151;SDS011;68;48.792;9.164;2024-02-16T07:01:10;16.90;;;16.00;;
151;SDS011;68;48.792;9.164;2024-02-16T07:03:38;16.48;;;15.68;;
151;SDS011;68;48.792;9.164;2024-02-16T07:06:05;16.95;;;16.05;;
151;SDS011;68;48.792;9.164;2024-02-16T07:08:34;21.05;;;16.83;;
151;SDS011;68;48.792;9.164;2024-02-16T07:11:02;16.92;;;16.05;;
151;SDS011;68;48.792;9.164;2024-02-16T07:13:29;16.92;;;16.02;;
151;SDS011;68;48.792;9.164;2024-02-16T07:15:58;17.95;;;15.73;;
151;SDS011;68;48.792;9.164;2024-02-16T07:18:24;17.00;;;16.10;;
151;SDS011;68;48.792;9.164;2024-02-16T07:20:51;17.20;;;16.30;;
151;SDS011;68;48.792;9.164;2024-02-16T07:23:18;16.13;;;15.32;;
151;SDS011;68;48.792;9.164;2024-02-16T07:25:44;18.73;;;16.77;;
151;SDS011;68;48.792;9.164;2024-02-16T07:28:12;18.13;;;17.23;;
151;SDS011;68;48.792;9.164;2024-02-16T07:30:38;18.05;;;17.10;;
151;SDS011;68;48.792;9.164;2024-02-16T07:33:07;17.75;;;16.85;;
151;SDS011;68;48.792;9.164;2024-02-16T07:35:34;21.10;;;16.85;;
151;SDS011;68;48.792;9.164;2024-02-16T07:38:01;17.70;;;16.75;;
151;SDS011;68;48.792;9.164;2024-02-16T07:40:28;21.70;;;17.10;;
151;SDS011;68;48.792;9.164;2024-02-16T07:42:55;37.60;;;16.38;;
151;SDS011;68;48.792;9.164;2024-02-16T07:45:22;26.65;;;16.80;;
151;SDS011;68;48.792;9.164;2024-02-16T07:47:49;27.83;;;16.92;;
151;SDS011;68;48.792;9.164;2024-02-16T07:50:19;18.80;;;16.70;;
151;SDS011;68;48.792;9.164;2024-02-16T07:52:47;17.75;;;16.13;;
151;SDS011;68;48.792;9.164;2024-02-16T07:55:14;19.02;;;16.38;;
151;SDS011;68;48.792;9.164;2024-02-16T07:57:43;22.27;;;16.20;;
151;SDS011;68;48.792;9.164;2024-02-16T08:00:10;29.98;;;17.75;;
151;SDS011;68;48.792;9.164;2024-02-16T08:02:37;19.70;;;16.20;;
151;SDS011;68;48.792;9.164;2024-02-16T08:05:07;16.73;;;15.90;;
151;SDS011;68;48.792;9.164;2024-02-16T08:07:35;23.00;;;15.50;;
151;SDS011;68;48.792;9.164;2024-02-16T08:10:02;20.67;;;15.43;;
151;SDS011;68;48.792;9.164;2024-02-16T08:12:29;15.95;;;15.15;;
151;SDS011;68;48.792;9.164;2024-02-16T08:14:56;17.88;;;15.68;;
151;SDS011;68;48.792;9.164;2024-02-16T08:17:24;18.83;;;15.95;;
151;SDS011;68;48.792;9.164;2024-02-16T08:19:51;15.95;;;15.15;;
151;SDS011;68;48.792;9.164;2024-02-16T08:22:19;17.27;;;16.30;;
151;SDS011;68;48.792;9.164;2024-02-16T08:24:47;22.42;;;15.18;;
151;SDS011;68;48.792;9.164;2024-02-16T08:27:15;17.40;;;15.20;;
151;SDS011;68;48.792;9.164;2024-02-16T08:29:42;16.88;;;14.43;;
151;SDS011;68;48.792;9.164;2024-02-16T08:32:09;15.98;;;15.18;;
151;SDS011;68;48.792;9.164;2024-02-16T08:34:36;17.70;;;14.98;;
151;SDS011;68;48.792;9.164;2024-02-16T08:37:03;15.50;;;14.70;;
151;SDS011;68;48.792;9.164;2024-02-16T08:39:31;16.00;;;15.20;;
151;SDS011;68;48.792;9.164;2024-02-16T08:42:00;16.73;;;15.85;;
151;SDS011;68;48.792;9.164;2024-02-16T08:44:28;17.90;;;15.50;;
151;SDS011;68;48.792;9.164;2024-02-16T08:46:55;17.65;;;15.13;;
151;SDS011;68;48.792;9.164;2024-02-16T08:49:21;16.23;;;15.05;;
151;SDS011;68;48.792;9.164;2024-02-16T08:51:48;16.25;;;14.77;;
151;SDS011;68;48.792;9.164;2024-02-16T08:54:15;16.73;;;14.95;;
151;SDS011;68;48.792;9.164;2024-02-16T08:56:43;16.50;;;15.70;;
151;SDS011;68;48.792;9.164;2024-02-16T08:59:12;17.23;;;15.85;;
151;SDS011;68;48.792;9.164;2024-02-16T09:01:39;17.17;;;15.52;;
151;SDS011;68;48.792;9.164;2024-02-16T09:04:06;19.17;;;15.23;;
151;SDS011;68;48.792;9.164;2024-02-16T09:06:32;16.35;;;15.38;;
151;SDS011;68;48.792;9.164;2024-02-16T09:08:59;15.63;;;14.85;;
151;SDS011;68;48.792;9.164;2024-02-16T09:11:26;20.27;;;15.05;;
151;SDS011;68;48.792;9.164;2024-02-16T09:13:53;16.20;;;15.40;;
151;SDS011;68;48.792;9.164;2024-02-16T09:16:21;15.95;;;14.63;;
151;SDS011;68;48.792;9.164;2024-02-16T09:18:48;17.58;;;15.20;;
151;SDS011;68;48.792;9.164;2024-02-16T09:21:15;18.17;;;14.75;;
151;SDS011;68;48.792;9.164;2024-02-16T09:23:42;20.90;;;16.40;;
151;SDS011;68;48.792;9.164;2024-02-16T09:26:09;19.67;;;16.55;;
151;SDS011;68;48.792;9.164;2024-02-16T09:28:38;21.13;;;18.10;;
151;SDS011;68;48.792;9.164;2024-02-16T09:31:06;17.98;;;16.08;;
151;SDS011;68;48.792;9.164;2024-02-16T09:33:35;16.30;;;15.38;;
151;SDS011;68;48.792;9.164;2024-02-16T09:36:01;15.13;;;14.32;;
151;SDS011;68;48.792;9.164;2024-02-16T09:38:30;14.98;;;14.18;;
151;SDS011;68;48.792;9.164;2024-02-16T09:40:57;16.38;;;15.13;;
151;SDS011;68;48.792;9.164;2024-02-16T09:43:24;18.92;;;15.23;;
151;SDS011;68;48.792;9.164;2024-02-16T09:45:53;16.85;;;14.90;;
151;SDS011;68;48.792;9.164;2024-02-16T09:48:20;24.88;;;15.40;;
151;SDS011;68;48.792;9.164;2024-02-16T09:50:48;23.27;;;16.30;;
151;SDS011;68;48.792;9.164;2024-02-16T09:53:16;19.75;;;16.40;;
151;SDS011;68;48.792;9.164;2024-02-16T09:55:46;20.83;;;15.73;;
151;SDS011;68;48.792;9.164;2024-02-16T09:58:15;17.80;;;15.25;;
151;SDS011;68;48.792;9.164;2024-02-16T10:00:47;19.00;;;15.50;;
151;SDS011;68;48.792;9.164;2024-02-16T10:03:21;17.88;;;15.32;;
151;SDS011;68;48.792;9.164;2024-02-16T10:05:52;21.40;;;15.25;;
151;SDS011;68;48.792;9.164;2024-02-16T10:08:30;16.85;;;15.25;;
151;SDS011;68;48.792;9.164;2024-02-16T10:11:00;16.02;;;15.23;;
151;SDS011;68;48.792;9.164;2024-02-16T10:13:27;15.30;;;14.50;;
151;SDS011;68;48.792;9.164;2024-02-16T10:16:03;16.13;;;14.57;;
151;SDS011;68;48.792;9.164;2024-02-16T10:18:31;18.30;;;14.35;;
151;SDS011;68;48.792;9.164;2024-02-16T10:20:59;18.10;;;15.57;;
151;SDS011;68;48.792;9.164;2024-02-16T10:23:26;16.00;;;15.20;;
151;SDS011;68;48.792;9.164;2024-02-16T10:25:53;18.73;;;15.00;;
151;SDS011;68;48.792;9.164;2024-02-16T10:28:21;15.82;;;14.95;;
151;SDS011;68;48.792;9.164;2024-02-16T10:30:52;15.57;;;14.68;;
151;SDS011;68;48.792;9.164;2024-02-16T10:33:24;20.50;;;15.18;;
151;SDS011;68;48.792;9.164;2024-02-16T10:35:53;18.42;;;15.30;;
151;SDS011;68;48.792;9.164;2024-02-16T10:38:23;23.33;;;16.05;;
151;SDS011;68;48.792;9.164;2024-02-16T10:40:52;20.25;;;15.45;;
151;SDS011;68;48.792;9.164;2024-02-16T10:43:20;16.42;;;15.63;;
151;SDS011;68;48.792;9.164;2024-02-16T10:45:48;25.80;;;16.35;;
151;SDS011;68;48.792;9.164;2024-02-16T10:48:18;21.85;;;16.50;;
151;SDS011;68;48.792;9.164;2024-02-16T10:50:45;20.35;;;15.63;;
151;SDS011;68;48.792;9.164;2024-02-16T10:53:17;24.33;;;16.20;;
151;SDS011;68;48.792;9.164;2024-02-16T10:55:50;16.40;;;15.45;;
151;SDS011;68;48.792;9.164;2024-02-16T10:58:17;18.80;;;15.40;;
151;SDS011;68;48.792;9.164;2024-02-16T11:00:48;16.65;;;15.85;;
151;SDS011;68;48.792;9.164;2024-02-16T11:03:16;19.42;;;13.93;;
151;SDS011;68;48.792;9.164;2024-02-16T11:05:43;16.08;;;14.85;;
151;SDS011;68;48.792;9.164;2024-02-16T11:08:12;17.52;;;14.18;;
151;SDS011;68;48.792;9.164;2024-02-16T11:10:39;19.60;;;15.23;;
151;SDS011;68;48.792;9.164;2024-02-16T11:13:07;15.93;;;14.52;;
151;SDS011;68;48.792;9.164;2024-02-16T11:15:34;17.73;;;15.00;;
151;SDS011;68;48.792;9.164;2024-02-16T11:18:03;18.75;;;14.55;;
151;SDS011;68;48.792;9.164;2024-02-16T11:20:36;15.70;;;14.48;;
151;SDS011;68;48.792;9.164;2024-02-16T11:23:06;17.50;;;14.40;;
151;SDS011;68;48.792;9.164;2024-02-16T11:25:35;20.50;;;14.07;;
151;SDS011;68;48.792;9.164;2024-02-16T11:28:03;16.23;;;13.63;;
151;SDS011;68;48.792;9.164;2024-02-16T11:30:33;13.95;;;13.25;;
151;SDS011;68;48.792;9.164;2024-02-16T11:33:01;14.00;;;13.30;;
151;SDS011;68;48.792;9.164;2024-02-16T11:35:28;14.35;;;13.65;;
151;SDS011;68;48.792;9.164;2024-02-16T11:37:55;15.23;;;13.48;;
151;SDS011;68;48.792;9.164;2024-02-16T11:40:23;13.75;;;13.05;;
151;SDS011;68;48.792;9.164;2024-02-16T11:42:56;13.82;;;13.18;;
151;SDS011;68;48.792;9.164;2024-02-16T11:45:24;19.77;;;13.07;;
151;SDS011;68;48.792;9.164;2024-02-16T11:48:03;14.30;;;13.60;;
151;SDS011;68;48.792;9.164;2024-02-16T11:50:31;14.20;;;13.55;;
151;SDS011;68;48.792;9.164;2024-02-16T11:52:58;16.55;;;13.38;;
151;SDS011;68;48.792;9.164;2024-02-16T11:55:25;15.88;;;12.70;;
151;SDS011;68;48.792;9.164;2024-02-16T11:57:51;17.55;;;13.20;;
151;SDS011;68;48.792;9.164;2024-02-16T12:00:19;16.50;;;13.20;;
151;SDS011;68;48.792;9.164;2024-02-16T12:02:47;15.48;;;13.57;;
151;SDS011;68;48.792;9.164;2024-02-16T12:05:15;16.60;;;13.38;;
151;SDS011;68;48.792;9.164;2024-02-16T12:07:42;14.00;;;13.30;;
151;SDS011;68;48.792;9.164;2024-02-16T12:10:10;14.35;;;13.63;;
151;SDS011;68;48.792;9.164;2024-02-16T12:12:37;16.08;;;12.98;;
151;SDS011;68;48.792;9.164;2024-02-16T12:15:04;21.27;;;13.85;;
151;SDS011;68;48.792;9.164;2024-02-16T12:17:32;14.32;;;13.63;;
151;SDS011;68;48.792;9.164;2024-02-16T12:19:59;18.33;;;14.05;;
151;SDS011;68;48.792;9.164;2024-02-16T12:22:28;14.30;;;13.50;;
151;SDS011;68;48.792;9.164;2024-02-16T12:24:55;19.10;;;13.60;;
151;SDS011;68;48.792;9.164;2024-02-16T12:27:22;14.43;;;13.43;;
151;SDS011;68;48.792;9.164;2024-02-16T12:29:49;14.00;;;13.30;;
151;SDS011;68;48.792;9.164;2024-02-16T12:32:15;16.02;;;14.07;;
151;SDS011;68;48.792;9.164;2024-02-16T12:34:44;17.20;;;13.90;;
151;SDS011;68;48.792;9.164;2024-02-16T12:37:11;17.88;;;13.88;;
151;SDS011;68;48.792;9.164;2024-02-16T12:39:39;13.70;;;12.90;;
151;SDS011;68;48.792;9.164;2024-02-16T12:42:06;15.95;;;13.15;;
151;SDS011;68;48.792;9.164;2024-02-16T12:44:33;14.18;;;13.48;;
151;SDS011;68;48.792;9.164;2024-02-16T12:46:59;14.93;;;13.10;;
151;SDS011;68;48.792;9.164;2024-02-16T12:49:26;14.93;;;14.13;;
151;SDS011;68;48.792;9.164;2024-02-16T12:51:53;15.45;;;13.50;;
151;SDS011;68;48.792;9.164;2024-02-16T12:54:20;13.70;;;13.00;;
151;SDS011;68;48.792;9.164;2024-02-16T12:56:48;14.68;;;13.93;;
151;SDS011;68;48.792;9.164;2024-02-16T12:59:16;19.25;;;15.15;;
151;SDS011;68;48.792;9.164;2024-02-16T13:01:42;20.30;;;14.70;;
151;SDS011;68;48.792;9.164;2024-02-16T13:04:09;18.27;;;14.27;;
151;SDS011;68;48.792;9.164;2024-02-16T13:06:35;17.33;;;14.20;;
151;SDS011;68;48.792;9.164;2024-02-16T13:09:02;14.70;;;13.95;;
151;SDS011;68;48.792;9.164;2024-02-16T13:11:30;17.17;;;14.23;;
151;SDS011;68;48.792;9.164;2024-02-16T13:14:00;17.05;;;14.00;;
151;SDS011;68;48.792;9.164;2024-02-16T13:16:26;16.30;;;14.32;;
151;SDS011;68;48.792;9.164;2024-02-16T13:18:53;19.17;;;14.25;;
151;SDS011;68;48.792;9.164;2024-02-16T13:21:20;16.10;;;14.10;;
151;SDS011;68;48.792;9.164;2024-02-16T13:23:47;17.33;;;14.23;;
151;SDS011;68;48.792;9.164;2024-02-16T13:26:14;16.70;;;13.82;;
151;SDS011;68;48.792;9.164;2024-02-16T13:28:41;26.83;;;14.68;;
151;SDS011;68;48.792;9.164;2024-02-16T13:31:10;17.27;;;14.30;;
151;SDS011;68;48.792;9.164;2024-02-16T13:33:37;18.13;;;14.65;;
151;SDS011;68;48.792;9.164;2024-02-16T13:36:03;15.30;;;14.35;;
151;SDS011;68;48.792;9.164;2024-02-16T13:38:31;15.07;;;14.27;;
151;SDS011;68;48.792;9.164;2024-02-16T13:40:57;15.75;;;13.70;;
151;SDS011;68;48.792;9.164;2024-02-16T13:43:24;14.88;;;14.07;;
151;SDS011;68;48.792;9.164;2024-02-16T13:45:52;15.70;;;13.52;;
151;SDS011;68;48.792;9.164;2024-02-16T13:48:24;18.75;;;13.88;;
151;SDS011;68;48.792;9.164;2024-02-16T13:50:51;19.80;;;14.75;;
151;SDS011;68;48.792;9.164;2024-02-16T13:53:18;24.42;;;16.38;;
151;SDS011;68;48.792;9.164;2024-02-16T13:55:47;19.50;;;15.07;;
151;SDS011;68;48.792;9.164;2024-02-16T13:58:14;19.23;;;15.52;;
151;SDS011;68;48.792;9.164;2024-02-16T14:00:41;21.45;;;15.40;;
151;SDS011;68;48.792;9.164;2024-02-16T14:03:09;17.92;;;15.18;;
151;SDS011;68;48.792;9.164;2024-02-16T14:05:39;23.45;;;14.55;;
151;SDS011;68;48.792;9.164;2024-02-16T14:08:07;16.45;;;14.63;;
151;SDS011;68;48.792;9.164;2024-02-16T14:10:36;23.30;;;15.00;;
151;SDS011;68;48.792;9.164;2024-02-16T14:13:03;17.00;;;14.57;;
151;SDS011;68;48.792;9.164;2024-02-16T14:15:30;16.95;;;14.55;;
151;SDS011;68;48.792;9.164;2024-02-16T14:17:56;17.58;;;14.85;;
151;SDS011;68;48.792;9.164;2024-02-16T14:20:23;19.40;;;14.93;;
151;SDS011;68;48.792;9.164;2024-02-16T14:22:51;16.52;;;13.90;;
151;SDS011;68;48.792;9.164;2024-02-16T14:25:18;16.13;;;14.00;;
151;SDS011;68;48.792;9.164;2024-02-16T14:27:45;20.63;;;15.48;;
151;SDS011;68;48.792;9.164;2024-02-16T14:30:12;30.50;;;14.50;;
151;SDS011;68;48.792;9.164;2024-02-16T14:32:39;22.70;;;14.45;;
151;SDS011;68;48.792;9.164;2024-02-16T14:35:06;30.40;;;14.77;;
151;SDS011;68;48.792;9.164;2024-02-16T14:37:34;22.80;;;15.25;;
151;SDS011;68;48.792;9.164;2024-02-16T14:40:03;26.63;;;15.60;;
151;SDS011;68;48.792;9.164;2024-02-16T14:42:35;20.80;;;15.70;;
151;SDS011;68;48.792;9.164;2024-02-16T14:45:01;16.88;;;14.70;;
151;SDS011;68;48.792;9.164;2024-02-16T14:47:29;16.75;;;14.25;;
151;SDS011;68;48.792;9.164;2024-02-16T14:49:55;22.80;;;14.55;;
151;SDS011;68;48.792;9.164;2024-02-16T14:52:22;23.20;;;14.95;;
151;SDS011;68;48.792;9.164;2024-02-16T14:54:49;25.20;;;15.13;;
151;SDS011;68;48.792;9.164;2024-02-16T14:57:17;16.95;;;14.40;;
151;SDS011;68;48.792;9.164;2024-02-16T14:59:45;21.58;;;14.23;;
151;SDS011;68;48.792;9.164;2024-02-16T15:02:12;22.33;;;14.55;;
151;SDS011;68;48.792;9.164;2024-02-16T15:04:39;21.95;;;13.68;;
151;SDS011;68;48.792;9.164;2024-02-16T15:07:05;24.52;;;14.02;;
151;SDS011;68;48.792;9.164;2024-02-16T15:09:32;18.38;;;13.80;;
151;SDS011;68;48.792;9.164;2024-02-16T15:11:59;19.02;;;13.40;;
151;SDS011;68;48.792;9.164;2024-02-16T15:14:27;23.65;;;13.25;;
151;SDS011;68;48.792;9.164;2024-02-16T15:16:54;15.43;;;13.68;;
151;SDS011;68;48.792;9.164;2024-02-16T15:19:20;16.13;;;13.40;;
151;SDS011;68;48.792;9.164;2024-02-16T15:21:47;20.45;;;13.88;;
151;SDS011;68;48.792;9.164;2024-02-16T15:24:14;14.98;;;13.50;;
151;SDS011;68;48.792;9.164;2024-02-16T15:26:41;18.45;;;14.00;;
151;SDS011;68;48.792;9.164;2024-02-16T15:29:07;14.25;;;13.55;;
151;SDS011;68;48.792;9.164;2024-02-16T15:31:35;17.52;;;13.88;;